Time;durP1;ratioP1;P1;durP2;ratioP2;P2;SDS_P1;SDS_P2;PMS_P1;PMS_P2;Temp;Humidity;BMP_temperature;BMP_pressure;BME280_temperature;BME280_humidity;BME280_pressure;Samples;Min_cycle;Max_cycle;Signal;HPM_P1;HPM_P2
2022/07/24 00:01:26;;;;;;;10.45;6.15;;;;;;;22.43;94.90;100360.63;4952331;29;20110;-62
2022/07/24 00:03:52;;;;;;;8.55;5.90;;;;;;;22.34;95.68;100373.00;4952770;29;20529;-63
2022/07/24 00:06:17;;;;;;;9.73;5.65;;;;;;;22.23;96.11;100372.97;4952578;29;20451;-63
2022/07/24 00:08:42;;;;;;;11.13;6.43;;;;;;;22.13;95.85;100363.78;4952988;29;20031;-65
2022/07/24 00:11:08;;;;;;;15.75;7.32;;;;;;;22.08;95.03;100363.25;4952922;29;20053;-64
2022/07/24 00:13:34;;;;;;;10.85;6.57;;;;;;;22.04;94.98;100365.34;4952600;29;20027;-64
2022/07/24 00:15:59;;;;;;;9.15;6.68;;;;;;;22.00;95.63;100369.25;4951226;29;20031;-64
2022/07/24 00:18:24;;;;;;;9.35;5.63;;;;;;;21.94;96.06;100375.09;4951420;29;20391;-64
2022/07/24 00:20:50;;;;;;;10.35;6.15;;;;;;;21.88;96.57;100372.00;4951402;29;20122;-65
2022/07/24 00:23:15;;;;;;;10.43;6.60;;;;;;;21.82;96.99;100378.75;4951424;29;20475;-64
2022/07/24 00:25:41;;;;;;;10.82;6.18;;;;;;;21.70;97.56;100376.00;4952682;28;20035;-64
2022/07/24 00:28:06;;;;;;;9.35;6.45;;;;;;;21.63;97.93;100361.22;4939984;29;20114;-65
2022/07/24 00:30:31;;;;;;;13.25;6.65;;;;;;;21.59;98.28;100363.25;4937371;29;20027;-64
2022/07/24 00:32:57;;;;;;;10.82;6.20;;;;;;;21.58;98.64;100361.50;4937246;29;20067;-64
2022/07/24 00:35:22;;;;;;;12.18;6.60;;;;;;;21.59;99.40;100355.13;4937318;29;20038;-64
2022/07/24 00:37:48;;;;;;;10.40;6.55;;;;;;;21.60;99.50;100359.56;4937420;29;20416;-64
2022/07/24 00:40:15;;;;;;;9.20;6.68;;;;;;;21.63;98.87;100358.50;4937442;29;20031;-64
2022/07/24 00:42:41;;;;;;;13.00;6.90;;;;;;;21.47;98.68;100318.13;4951687;28;20046;-64
2022/07/24 00:45:07;;;;;;;10.25;6.57;;;;;;;21.68;97.89;100349.03;4956183;29;20031;-64
2022/07/24 00:47:33;;;;;;;10.82;6.82;;;;;;;21.73;97.36;100348.72;4956077;29;20121;-64
2022/07/24 00:49:59;;;;;;;10.65;6.72;;;;;;;21.81;96.08;100349.91;4956298;29;20368;-64
2022/07/24 00:52:25;;;;;;;9.45;6.72;;;;;;;21.89;94.81;100352.91;4956506;29;20035;-64
2022/07/24 00:54:50;;;;;;;10.40;6.45;;;;;;;21.94;94.07;100342.59;4956283;29;20459;-64
2022/07/24 00:57:16;;;;;;;11.38;6.22;;;;;;;21.84;94.81;100335.28;4956187;29;20550;-65
2022/07/24 00:59:41;;;;;;;10.25;6.80;;;;;;;21.88;95.69;100344.91;4955780;29;20399;-64
2022/07/24 01:02:07;;;;;;;11.88;6.63;;;;;;;21.79;96.67;100342.88;4955949;29;20114;-64
2022/07/24 01:04:32;;;;;;;9.45;6.03;;;;;;;21.71;97.16;100334.44;4957937;28;20387;-64
2022/07/24 01:06:58;;;;;;;8.77;6.07;;;;;;;21.62;96.83;100335.09;4956068;29;20027;-64
2022/07/24 01:09:24;;;;;;;12.77;6.70;;;;;;;21.60;95.92;100345.16;4956000;29;20102;-64
2022/07/24 01:11:51;;;;;;;12.23;6.68;;;;;;;21.54;95.95;100343.78;4956168;29;20027;-64
2022/07/24 01:14:17;;;;;;;11.25;6.80;;;;;;;21.49;95.96;100345.94;4956134;29;20031;-64
2022/07/24 01:16:42;;;;;;;9.18;5.82;;;;;;;21.42;95.92;100347.34;4955538;29;20447;-64
2022/07/24 01:19:08;;;;;;;10.98;7.28;;;;;;;21.35;96.79;100334.38;4955819;29;20027;-64
2022/07/24 01:21:33;;;;;;;11.95;7.50;;;;;;;21.33;96.85;100337.22;4958046;28;20027;-64
2022/07/24 01:23:59;;;;;;;9.93;6.60;;;;;;;21.29;97.00;100341.09;4955606;29;20027;-64
2022/07/24 01:26:24;;;;;;;9.70;6.22;;;;;;;21.21;97.86;100342.59;4953671;29;20027;-64
2022/07/24 01:28:49;;;;;;;8.85;6.50;;;;;;;21.14;98.52;100339.47;4936512;29;20032;-65
2022/07/24 01:31:15;;;;;;;9.95;7.40;;;;;;;21.10;99.84;100342.50;4942747;28;20016;-65
2022/07/24 01:33:40;;;;;;;9.98;6.35;;;;;;;21.07;100.00;100340.03;4955309;29;20027;-65
2022/07/24 01:36:06;;;;;;;9.82;6.43;;;;;;;21.06;100.00;100343.69;4955245;28;20027;-65
2022/07/24 01:38:31;;;;;;;9.65;6.65;;;;;;;21.00;100.00;100336.00;4955460;29;20544;-65
2022/07/24 01:40:57;;;;;;;9.75;6.57;;;;;;;20.97;100.00;100347.03;4955459;29;20023;-65
2022/07/24 01:43:22;;;;;;;12.10;7.40;;;;;;;20.98;100.00;100340.66;4955167;29;20042;-65
2022/07/24 01:45:48;;;;;;;13.38;7.07;;;;;;;20.94;100.00;100343.53;4954362;29;20035;-65
2022/07/24 01:48:13;;;;;;;9.10;6.35;;;;;;;20.85;100.00;100340.63;4953778;29;20316;-64
2022/07/24 01:50:39;;;;;;;10.27;7.07;;;;;;;20.81;100.00;100342.66;4953244;29;20372;-65
2022/07/24 01:53:04;;;;;;;13.57;7.35;;;;;;;20.77;100.00;100341.13;4953209;29;20174;-65
2022/07/24 01:55:30;;;;;;;11.25;6.80;;;;;;;20.74;100.00;100346.75;4953660;29;20027;-65
2022/07/24 01:57:56;;;;;;;11.10;6.90;;;;;;;20.69;100.00;100351.63;4953393;29;20034;-65
2022/07/24 02:00:21;;;;;;;12.75;6.80;;;;;;;20.69;100.00;100351.63;4953710;29;20024;-65
2022/07/24 02:02:46;;;;;;;12.00;6.93;;;;;;;20.68;100.00;100355.31;4954632;29;20498;-65
2022/07/24 02:05:13;;;;;;;11.05;6.68;;;;;;;20.67;100.00;100348.16;4955042;29;20027;-65
2022/07/24 02:07:40;;;;;;;10.98;6.88;;;;;;;20.61;100.00;100348.56;4954784;29;20399;-64
2022/07/24 02:10:07;;;;;;;10.75;6.30;;;;;;;20.51;100.00;100333.97;4954757;29;20035;-64
2022/07/24 02:12:32;;;;;;;10.23;6.57;;;;;;;20.50;100.00;100344.88;4954781;29;20118;-64
2022/07/24 02:14:58;;;;;;;11.63;6.85;;;;;;;20.47;100.00;100335.16;4954718;29;20106;-64
2022/07/24 02:17:23;;;;;;;11.25;6.43;;;;;;;20.45;100.00;100339.78;4954724;29;20019;-65
2022/07/24 02:19:49;;;;;;;10.95;6.93;;;;;;;20.46;100.00;100341.50;4954627;29;20027;-64
2022/07/24 02:22:14;;;;;;;11.20;7.65;;;;;;;20.46;100.00;100340.66;4954609;29;20491;-65
2022/07/24 02:24:40;;;;;;;9.88;6.85;;;;;;;20.42;100.00;100340.00;4954617;29;20027;-65
2022/07/24 02:27:05;;;;;;;10.52;6.97;;;;;;;20.42;100.00;100340.00;4947084;29;20039;-64
2022/07/24 02:29:30;;;;;;;8.90;6.35;;;;;;;20.38;100.00;100341.16;4935073;29;20034;-64
2022/07/24 02:31:56;;;;;;;12.25;6.95;;;;;;;20.33;100.00;100343.31;4935314;29;20033;-64
2022/07/24 02:34:21;;;;;;;11.35;7.03;;;;;;;20.29;100.00;100332.81;4935260;29;20031;-64
2022/07/24 02:36:47;;;;;;;11.07;6.95;;;;;;;20.26;100.00;100344.69;4935079;29;20411;-64
2022/07/24 02:39:12;;;;;;;10.18;6.40;;;;;;;20.22;100.00;100347.69;4952167;28;20054;-64
2022/07/24 02:41:37;;;;;;;10.93;6.40;;;;;;;20.18;100.00;100351.59;4954212;29;20037;-64
2022/07/24 02:44:03;;;;;;;9.20;6.47;;;;;;;20.13;100.00;100354.53;4954091;29;20027;-64
2022/07/24 02:46:29;;;;;;;9.27;6.28;;;;;;;20.11;100.00;100356.50;4954212;29;20043;-64
2022/07/24 02:48:54;;;;;;;10.65;7.38;;;;;;;20.05;100.00;100361.44;4953199;28;20570;-64
2022/07/24 02:51:19;;;;;;;10.15;6.75;;;;;;;20.00;100.00;100356.31;4954088;29;20105;-64
2022/07/24 02:53:45;;;;;;;9.98;6.47;;;;;;;19.96;100.00;100357.50;4954053;29;20026;-64
2022/07/24 02:56:10;;;;;;;8.75;6.15;;;;;;;19.89;100.00;100360.69;4953984;29;20031;-64
2022/07/24 02:58:36;;;;;;;11.88;6.72;;;;;;;19.84;100.00;100358.28;4953232;29;20031;-64
2022/07/24 03:01:01;;;;;;;13.65;6.97;;;;;;;19.83;100.00;100351.19;4953929;29;20444;-64
2022/07/24 03:03:27;;;;;;;10.52;7.15;;;;;;;19.92;100.00;100360.50;4953705;28;20103;-64
2022/07/24 03:05:52;;;;;;;11.70;7.13;;;;;;;19.92;100.00;100361.34;4952823;29;20037;-64
2022/07/24 03:08:18;;;;;;;15.63;7.32;;;;;;;19.99;100.00;100357.31;4952696;28;20039;-64
2022/07/24 03:10:43;;;;;;;12.55;7.93;;;;;;;20.09;100.00;100373.75;4954112;28;20023;-64
2022/07/24 03:13:09;;;;;;;11.70;6.55;;;;;;;20.11;100.00;100361.91;4952129;29;20101;-64
2022/07/24 03:15:34;;;;;;;12.93;6.90;;;;;;;20.08;100.00;100364.78;4952017;29;20166;-64
2022/07/24 03:17:59;;;;;;;12.20;7.38;;;;;;;20.04;100.00;100371.38;4952071;29;20023;-64
2022/07/24 03:20:26;;;;;;;12.55;6.78;;;;;;;19.89;100.00;100372.38;4952606;29;20498;-64
2022/07/24 03:22:52;;;;;;;11.90;7.03;;;;;;;19.82;100.00;100365.63;4955262;28;20061;-64
2022/07/24 03:25:18;;;;;;;11.77;7.07;;;;;;;19.78;100.00;100374.03;4936680;29;20435;-64
2022/07/24 03:27:46;;;;;;;15.82;7.18;;;;;;;19.72;100.00;100369.88;4941047;29;20285;-62
2022/07/24 03:30:11;;;;;;;11.32;7.43;;;;;;;19.69;100.00;100370.06;4934614;29;20039;-62
2022/07/24 03:32:37;;;;;;;10.95;7.32;;;;;;;19.69;100.00;100364.69;4934637;29;20024;-62
2022/07/24 03:35:03;;;;;;;11.70;7.00;;;;;;;19.70;100.00;100371.84;4933917;29;20488;-62
2022/07/24 03:37:28;;;;;;;10.73;6.88;;;;;;;19.67;100.00;100366.59;4933965;29;20032;-62
2022/07/24 03:39:54;;;;;;;10.27;6.75;;;;;;;19.47;100.00;100364.34;4942228;28;20027;-62
2022/07/24 03:42:19;;;;;;;10.80;7.03;;;;;;;19.47;100.00;100367.88;4951698;29;20259;-62
2022/07/24 03:44:45;;;;;;;10.57;7.50;;;;;;;19.54;100.00;100365.66;4951027;29;20121;-62
2022/07/24 03:47:10;;;;;;;11.95;7.30;;;;;;;19.52;100.00;100373.00;4951146;29;20543;-62
2022/07/24 03:49:36;;;;;;;12.75;8.05;;;;;;;19.43;100.00;100369.06;4951388;29;20027;-62
2022/07/24 03:52:01;;;;;;;13.73;7.28;;;;;;;19.38;100.00;100364.91;4951782;29;20546;-62
2022/07/24 03:54:27;;;;;;;10.15;6.63;;;;;;;19.37;100.00;100374.81;4952534;29;20073;-62
2022/07/24 03:56:52;;;;;;;11.85;7.97;;;;;;;19.36;100.00;100372.22;4952990;29;20035;-64
2022/07/24 03:59:18;;;;;;;11.80;6.47;;;;;;;19.37;100.00;100377.50;4952626;28;20523;-64
2022/07/24 04:01:44;;;;;;;10.57;6.72;;;;;;;19.37;100.00;100379.38;4953122;28;20411;-64
2022/07/24 04:04:09;;;;;;;9.85;7.25;;;;;;;19.36;100.00;100378.50;4952653;28;20062;-64
2022/07/24 04:06:35;;;;;;;10.40;7.55;;;;;;;19.30;100.00;100369.91;4952859;29;20042;-64
2022/07/24 04:09:03;;;;;;;11.82;6.80;;;;;;;19.33;100.00;100380.50;4953010;29;20031;-64
2022/07/24 04:11:28;;;;;;;12.48;7.28;;;;;;;19.34;100.00;100384.97;4935705;29;20076;-64
2022/07/24 04:13:54;;;;;;;11.38;7.50;;;;;;;19.36;100.00;100389.28;4952879;29;20579;-64
2022/07/24 04:16:20;;;;;;;10.68;7.03;;;;;;;19.40;100.00;100389.97;4953041;29;20155;-64
2022/07/24 04:18:45;;;;;;;14.18;7.63;;;;;;;19.45;100.00;100398.63;4953195;29;20031;-64
2022/07/24 04:21:10;;;;;;;12.75;7.60;;;;;;;19.52;100.00;100402.69;4953071;29;20027;-64
2022/07/24 04:23:36;;;;;;;12.25;7.50;;;;;;;19.50;100.00;100396.53;4952626;29;20115;-64
2022/07/24 04:26:02;;;;;;;16.75;8.50;;;;;;;19.57;100.00;100408.66;4952692;29;20043;-64
2022/07/24 04:28:27;;;;;;;13.20;7.55;;;;;;;19.60;100.00;100408.47;4934589;29;20484;-64
2022/07/24 04:30:53;;;;;;;13.23;9.07;;;;;;;19.64;100.00;100400.06;4933618;29;20039;-64
2022/07/24 04:33:18;;;;;;;16.25;7.45;;;;;;;19.65;100.00;100399.09;4932208;29;20027;-63
2022/07/24 04:35:44;;;;;;;11.43;7.28;;;;;;;19.70;100.00;100404.22;4932507;29;20032;-64
2022/07/24 04:38:09;;;;;;;11.68;6.45;;;;;;;19.76;100.00;100403.81;4932351;29;20028;-63
2022/07/24 04:40:35;;;;;;;12.05;7.32;;;;;;;19.74;100.00;100402.16;4947217;28;20114;-63
2022/07/24 04:43:00;;;;;;;9.80;6.47;;;;;;;19.76;100.00;100405.66;4952596;29;20043;-63
2022/07/24 04:45:26;;;;;;;9.80;6.85;;;;;;;19.75;100.00;100404.81;4952444;29;20084;-63
2022/07/24 04:47:51;;;;;;;10.38;6.95;;;;;;;19.79;100.00;100403.63;4952780;29;20380;-63
2022/07/24 04:50:16;;;;;;;12.43;8.13;;;;;;;19.87;100.00;100411.25;4952660;29;20045;-63
2022/07/24 04:52:42;;;;;;;11.43;7.07;;;;;;;19.87;100.00;100412.09;4952572;29;20031;-63
2022/07/24 04:55:09;;;;;;;14.52;7.88;;;;;;;19.98;100.00;100408.72;4952354;29;20542;-63
2022/07/24 04:57:35;;;;;;;16.25;8.38;;;;;;;20.10;100.00;100402.53;4952572;29;20039;-64
2022/07/24 05:00:00;;;;;;;10.25;7.35;;;;;;;20.21;100.00;100409.00;4952640;29;20034;-63
2022/07/24 05:02:26;;;;;;;13.50;8.48;;;;;;;20.36;100.00;100407.94;4952581;29;20038;-63
2022/07/24 05:04:51;;;;;;;12.52;7.78;;;;;;;20.50;100.00;100416.03;4953486;28;20045;-64
2022/07/24 05:07:16;;;;;;;12.48;7.97;;;;;;;20.67;100.00;100412.19;4952536;29;20034;-63
2022/07/24 05:09:42;;;;;;;13.40;8.68;;;;;;;20.82;100.00;100403.88;4952401;29;20084;-63
2022/07/24 05:12:08;;;;;;;11.68;8.30;;;;;;;20.97;100.00;100411.94;4954418;28;20027;-63
2022/07/24 05:14:33;;;;;;;10.25;7.55;;;;;;;21.09;100.00;100409.25;4954436;28;20024;-63
2022/07/24 05:16:59;;;;;;;11.93;7.18;;;;;;;21.27;100.00;100413.41;4956092;29;20023;-63
2022/07/24 05:19:24;;;;;;;12.02;7.63;;;;;;;21.37;98.50;100405.47;4955675;29;20094;-63
2022/07/24 05:21:49;;;;;;;12.32;7.32;;;;;;;21.38;96.63;100404.53;4955914;29;20074;-64
2022/07/24 05:24:15;;;;;;;12.82;8.18;;;;;;;21.56;94.83;100414.94;4955499;29;20038;-63
2022/07/24 05:26:40;;;;;;;11.52;7.68;;;;;;;21.75;92.85;100412.63;4951726;29;20435;-63
2022/07/24 05:29:06;;;;;;;11.10;7.85;;;;;;;21.76;91.64;100414.38;4936688;29;20028;-63
2022/07/24 05:31:32;;;;;;;13.02;7.63;;;;;;;21.84;91.94;100411.13;4936814;29;20098;-63
2022/07/24 05:33:58;;;;;;;15.82;8.70;;;;;;;21.93;91.61;100414.03;4936693;29;20114;-63
2022/07/24 05:36:24;;;;;;;11.38;8.52;;;;;;;22.00;90.91;100419.88;4936646;29;20030;-63
2022/07/24 05:38:49;;;;;;;14.63;7.70;;;;;;;22.12;90.71;100416.25;4936354;29;20079;-63
2022/07/24 05:41:15;;;;;;;12.57;8.35;;;;;;;22.27;89.86;100411.56;4936045;29;20098;-63
2022/07/24 05:43:40;;;;;;;15.68;7.72;;;;;;;22.40;89.28;100415.94;4947257;28;20019;-63
2022/07/24 05:46:06;;;;;;;12.23;8.00;;;;;;;22.54;88.63;100413.09;4974728;28;20073;-63
2022/07/24 05:48:32;;;;;;;11.57;7.65;;;;;;;22.66;88.09;100414.88;4971911;28;20027;-63
2022/07/24 05:50:57;;;;;;;10.10;6.82;;;;;;;22.77;87.46;100412.22;4955533;29;20114;-63
2022/07/24 05:53:23;;;;;;;10.73;6.88;;;;;;;22.91;87.30;100411.16;4955295;29;20050;-63
2022/07/24 05:55:49;;;;;;;11.25;7.30;;;;;;;23.02;86.37;100417.47;4954816;29;20058;-63
2022/07/24 05:58:16;;;;;;;10.98;7.00;;;;;;;23.12;85.83;100413.06;4954615;29;20030;-63
2022/07/24 06:00:41;;;;;;;14.98;8.02;;;;;;;23.22;85.54;100411.38;4953988;29;20027;-63
2022/07/24 06:03:07;;;;;;;12.05;7.85;;;;;;;23.33;86.96;100399.69;4953908;29;20055;-63
2022/07/24 06:05:32;;;;;;;10.18;6.95;;;;;;;23.44;86.70;100406.00;4953917;29;20027;-63
2022/07/24 06:07:58;;;;;;;11.23;7.22;;;;;;;23.61;85.60;100411.97;4953986;29;20039;-63
2022/07/24 06:10:24;;;;;;;10.63;7.22;;;;;;;23.77;83.32;100409.75;4953681;29;20020;-63
2022/07/24 06:12:49;;;;;;;12.18;7.85;;;;;;;23.83;83.96;100411.94;4953812;29;20087;-63
2022/07/24 06:15:15;;;;;;;13.05;7.40;;;;;;;23.94;83.47;100414.66;4954692;29;20042;-63
2022/07/24 06:17:40;;;;;;;11.20;7.53;;;;;;;24.02;83.85;100413.06;4954730;29;20444;-64
2022/07/24 06:20:08;;;;;;;12.95;7.43;;;;;;;24.15;83.04;100410.25;4954771;29;20099;-64
2022/07/24 06:22:33;;;;;;;13.48;7.20;;;;;;;24.27;81.92;100411.94;4952934;28;20035;-63
2022/07/24 06:24:59;;;;;;;12.15;7.45;;;;;;;24.30;83.15;100408.97;4952274;29;20038;-63
2022/07/24 06:27:24;;;;;;;13.10;7.93;;;;;;;24.43;83.12;100399.66;4942891;29;20023;-63
2022/07/24 06:29:50;;;;;;;10.93;6.80;;;;;;;24.59;82.70;100407.41;4933621;29;20065;-63
2022/07/24 06:32:15;;;;;;;11.48;6.65;;;;;;;24.76;81.21;100406.84;4933773;29;20472;-63
2022/07/24 06:34:40;;;;;;;10.02;6.65;;;;;;;24.90;79.87;100406.56;4933847;29;20087;-63
2022/07/24 06:37:06;;;;;;;8.70;6.00;;;;;;;25.06;79.41;100412.41;4935539;29;20031;-63
2022/07/24 06:39:31;;;;;;;9.88;6.72;;;;;;;25.18;77.65;100413.22;4935012;29;20027;-63
2022/07/24 06:41:57;;;;;;;9.60;6.85;;;;;;;25.20;77.19;100414.81;4935216;29;20051;-63
2022/07/24 06:44:22;;;;;;;10.70;6.88;;;;;;;25.35;75.93;100413.53;4935287;29;20036;-63
2022/07/24 06:46:48;;;;;;;10.18;6.53;;;;;;;25.47;75.34;100412.44;4934861;29;20493;-63
2022/07/24 06:49:14;;;;;;;8.85;5.78;;;;;;;25.61;74.14;100412.09;4935038;29;20031;-64
2022/07/24 06:51:39;;;;;;;10.30;5.95;;;;;;;25.70;71.94;100413.16;4934689;29;20369;-63
2022/07/24 06:54:05;;;;;;;11.23;6.18;;;;;;;25.75;71.66;100411.72;4935435;29;20388;-63
2022/07/24 06:56:31;;;;;;;11.02;6.95;;;;;;;26.04;71.82;100411.88;4954040;29;20042;-63
2022/07/24 06:58:56;;;;;;;8.80;5.93;;;;;;;26.24;69.91;100407.34;4953959;29;20023;-63
2022/07/24 07:01:25;;;;;;;8.38;5.40;;;;;;;26.35;68.38;100410.81;4953924;29;20033;-63
2022/07/24 07:03:52;;;;;;;9.20;5.55;;;;;;;26.42;66.01;100411.13;4953564;29;20551;-63
2022/07/24 07:06:17;;;;;;;6.95;5.25;;;;;;;26.51;65.83;100415.72;4956135;28;20035;-63
2022/07/24 07:08:42;;;;;;;9.80;5.22;;;;;;;26.64;64.10;100410.88;4951092;28;20110;-63
2022/07/24 07:11:08;;;;;;;7.82;5.30;;;;;;;26.66;64.12;100414.34;4954018;28;20026;-63
2022/07/24 07:13:33;;;;;;;8.23;4.97;;;;;;;26.81;63.06;100407.47;4951991;29;20082;-63
2022/07/24 07:15:58;;;;;;;10.93;5.88;;;;;;;27.00;63.48;100413.78;4951555;29;20094;-63
2022/07/24 07:18:24;;;;;;;8.63;5.25;;;;;;;27.20;62.76;100422.81;4951610;29;20111;-63
2022/07/24 07:20:53;;;;;;;8.18;5.55;;;;;;;27.45;60.69;100410.44;4953141;29;20027;-63
2022/07/24 07:23:22;;;;;;;8.90;5.13;;;;;;;27.65;59.54;100415.72;4953692;29;20530;-64
2022/07/24 07:25:47;;;;;;;9.45;5.65;;;;;;;27.74;58.58;100414.81;4953194;29;20034;-63
2022/07/24 07:28:13;;;;;;;10.15;5.55;;;;;;;27.70;58.93;100415.25;4937319;29;20472;-64
2022/07/24 07:30:38;;;;;;;7.70;5.40;;;;;;;27.78;58.66;100409.91;4934136;29;20035;-63
2022/07/24 07:33:04;;;;;;;7.22;5.32;;;;;;;27.98;58.61;100412.47;4934326;29;20523;-64
2022/07/24 07:35:29;;;;;;;8.43;5.63;;;;;;;28.26;57.20;100405.13;4933389;29;20027;-64
2022/07/24 07:37:55;;;;;;;8.55;5.32;;;;;;;28.57;54.37;100408.44;4943625;28;20054;-63
2022/07/24 07:40:20;;;;;;;8.25;4.95;;;;;;;28.79;53.74;100407.94;4953028;29;20034;-64
2022/07/24 07:42:46;;;;;;;8.48;5.07;;;;;;;29.08;54.40;100409.47;4951880;29;20078;-63
2022/07/24 07:45:11;;;;;;;6.95;4.50;;;;;;;29.29;53.51;100406.38;4950870;29;20027;-64
2022/07/24 07:47:37;;;;;;;7.78;5.00;;;;;;;29.75;51.71;100403.31;4952052;29;20062;-64
2022/07/24 07:50:03;;;;;;;6.88;4.40;;;;;;;30.18;50.32;100389.44;4952306;29;20383;-64
2022/07/24 07:52:29;;;;;;;8.40;4.85;;;;;;;30.09;50.90;100390.44;4951252;29;20719;-64
2022/07/24 07:54:55;;;;;;;6.88;4.43;;;;;;;30.20;49.11;100392.88;4951644;29;20314;-64
2022/07/24 07:57:20;;;;;;;6.75;4.90;;;;;;;30.35;48.13;100396.75;4951627;29;20035;-64
2022/07/24 07:59:46;;;;;;;7.75;4.95;;;;;;;30.58;49.11;100397.84;4951584;29;20027;-64
2022/07/24 08:02:11;;;;;;;7.75;4.93;;;;;;;30.79;46.57;100398.25;4951248;29;20069;-64
2022/07/24 08:04:37;;;;;;;8.60;4.90;;;;;;;31.05;47.26;100391.75;4950867;29;20043;-65
2022/07/24 08:07:02;;;;;;;7.50;4.80;;;;;;;31.10;46.13;100386.59;4951479;29;20034;-65
2022/07/24 08:09:27;;;;;;;6.80;4.68;;;;;;;31.29;46.66;100391.72;4951607;29;20027;-65
2022/07/24 08:11:53;;;;;;;8.13;4.65;;;;;;;31.48;46.12;100389.53;4951348;29;20035;-65
2022/07/24 08:14:18;;;;;;;8.48;4.88;;;;;;;31.96;45.36;100396.84;4951848;29;20352;-65
2022/07/24 08:16:44;;;;;;;7.85;4.70;;;;;;;32.29;44.26;100395.63;4951203;29;20082;-65
2022/07/24 08:19:09;;;;;;;7.40;4.85;;;;;;;32.26;44.34;100396.00;4951665;29;20482;-65
2022/07/24 08:21:35;;;;;;;7.38;4.70;;;;;;;32.17;43.02;100404.50;4951398;29;20114;-65
2022/07/24 08:24:00;;;;;;;6.60;4.60;;;;;;;32.45;42.49;100395.63;4951373;29;20031;-65
2022/07/24 08:26:30;;;;;;;8.27;4.05;;;;;;;32.78;42.69;100391.63;4949676;29;20067;-66
2022/07/24 08:28:56;;;;;;;8.88;4.68;;;;;;;33.07;42.23;100394.53;4932222;29;20266;-65
2022/07/24 08:31:21;;;;;;;7.55;4.03;;;;;;;33.14;42.37;100398.25;4931758;29;20126;-65
2022/07/24 08:33:46;;;;;;;8.75;4.53;;;;;;;33.31;41.88;100393.47;4932085;29;20667;-65
2022/07/24 08:36:12;;;;;;;6.65;4.57;;;;;;;33.25;41.45;100394.19;4932157;29;20241;-66
2022/07/24 08:38:37;;;;;;;9.00;4.63;;;;;;;33.21;41.61;100398.38;4930110;29;20027;-66
2022/07/24 08:41:03;;;;;;;6.85;4.30;;;;;;;33.11;40.25;100395.00;4932964;29;20023;-66
2022/07/24 08:43:28;;;;;;;10.45;4.55;;;;;;;33.03;41.21;100398.69;4931930;29;20031;-66
2022/07/24 08:45:55;;;;;;;8.82;4.45;;;;;;;33.31;41.91;100397.06;4935474;28;20123;-66
2022/07/24 08:48:21;;;;;;;7.60;4.40;;;;;;;33.51;41.02;100391.91;4956138;28;20031;-66
2022/07/24 08:50:47;;;;;;;7.20;4.70;;;;;;;33.90;40.15;100394.41;4954800;29;20038;-66
2022/07/24 08:53:13;;;;;;;6.50;4.57;;;;;;;34.06;39.73;100394.25;4954727;29;20539;-66
2022/07/24 08:55:38;;;;;;;7.78;4.13;;;;;;;34.35;39.07;100391.47;4954966;29;20415;-66
2022/07/24 08:58:04;;;;;;;7.45;4.90;;;;;;;34.31;39.55;100391.00;4956095;29;20038;-66
2022/07/24 09:00:31;;;;;;;6.20;3.85;;;;;;;34.33;39.92;100393.56;4957423;28;20023;-66
2022/07/24 09:02:57;;;;;;;6.95;4.50;;;;;;;34.49;40.62;100385.09;4956392;28;20031;-66
2022/07/24 09:05:23;;;;;;;8.50;5.00;;;;;;;34.56;39.69;100388.78;4957642;28;20783;-66
2022/07/24 09:07:48;;;;;;;7.07;4.57;;;;;;;34.78;39.04;100386.91;4956012;29;20062;-66
2022/07/24 09:10:18;;;;;;;8.77;4.55;;;;;;;34.71;38.59;100380.44;4955505;29;20034;-67
2022/07/24 09:12:46;;;;;;;7.45;4.78;;;;;;;34.99;38.35;100378.66;4954904;29;20030;-67
2022/07/24 09:15:17;;;;;;;6.68;4.55;;;;;;;35.25;39.50;100379.75;4954550;29;20114;-67
2022/07/24 09:17:50;;;;;;;7.68;4.53;;;;;;;35.63;37.60;100381.16;4954280;29;20408;-67
2022/07/24 09:20:15;;;;;;;;;;;;;;;35.05;37.36;100375.94;4955523;29;20515;-67
2022/07/24 09:22:42;;;;;;;6.88;4.97;;;;;;;34.93;39.12;100373.88;4955723;29;19921;-67
2022/07/24 09:25:14;;;;;;;6.47;4.38;;;;;;;35.04;38.94;100376.97;4955591;29;20019;-67
2022/07/24 09:27:50;;;;;;;6.10;4.32;;;;;;;35.11;39.01;100377.91;4943872;29;20408;-67
2022/07/24 09:30:41;;;;;;;8.25;4.20;;;;;;;35.46;38.12;100371.44;4936519;29;20052;-67
2022/07/24 09:33:13;;;;;;;6.32;4.18;;;;;;;35.21;37.99;100372.03;4936838;29;20024;-67
2022/07/24 09:35:47;;;;;;;7.88;4.50;;;;;;;35.24;38.34;100366.94;4935573;29;20055;-67
2022/07/24 09:38:15;;;;;;;6.53;4.47;;;;;;;35.66;35.29;100369.69;4945526;29;20023;-67
2022/07/24 09:40:43;;;;;;;10.48;4.13;;;;;;;35.99;36.31;100363.50;4953857;29;20031;-67
2022/07/24 09:43:43;;;;;;;6.15;4.13;;;;;;;36.25;36.08;100363.63;4956380;28;20034;-67
2022/07/24 09:46:09;;;;;;;5.97;4.28;;;;;;;36.06;36.46;100368.03;4950524;29;20051;-67
2022/07/24 09:48:50;;;;;;;6.45;4.05;;;;;;;36.36;34.74;100360.31;4953806;29;20074;-67
2022/07/24 09:51:17;;;;;;;5.38;3.78;;;;;;;36.28;35.96;100353.00;4954900;29;20553;-67
2022/07/24 09:53:46;;;;;;;7.22;4.03;;;;;;;36.26;34.13;100357.03;4955366;29;20427;-67
2022/07/24 09:56:13;;;;;;;5.90;3.70;;;;;;;35.97;35.42;100357.31;4955293;29;20407;-67
2022/07/24 09:58:48;;;;;;;6.38;3.72;;;;;;;35.92;35.00;100354.28;4954439;28;20027;-67
2022/07/24 10:01:17;;;;;;;5.57;3.85;;;;;;;35.52;33.51;100359.56;4955373;29;20169;-67
2022/07/24 10:03:45;;;;;;;7.57;4.38;;;;;;;36.02;34.00;100360.31;4954316;29;20178;-67
2022/07/24 10:06:16;;;;;;;6.80;3.78;;;;;;;35.90;34.39;100362.81;4954609;29;20394;-67
2022/07/24 10:08:43;;;;;;;6.40;4.05;;;;;;;35.83;33.76;100351.66;4954699;29;20035;-67
2022/07/24 10:11:09;;;;;;;5.72;3.60;;;;;;;35.57;34.27;100347.88;4953286;29;20027;-67
2022/07/24 10:13:35;;;;;;;6.05;4.15;;;;;;;35.82;34.72;100351.88;4951857;29;20062;-67
2022/07/24 10:16:25;;;;;;;8.13;3.95;;;;;;;36.14;32.51;100344.81;4951972;28;20563;-67
2022/07/24 10:19:03;;;;;;;7.15;3.50;;;;;;;35.96;31.36;100345.41;4951722;29;20500;-67
2022/07/24 10:21:30;;;;;;;6.18;3.03;;;;;;;36.29;32.04;100340.00;4953440;29;20475;-67
2022/07/24 10:24:24;;;;;;;6.55;3.72;;;;;;;36.70;30.92;100349.09;4953187;29;20063;-67
2022/07/24 10:26:50;;;;;;;6.15;4.18;;;;;;;36.99;32.72;100348.75;4940008;29;20035;-67
2022/07/24 10:29:19;;;;;;;5.97;3.40;;;;;;;37.12;32.61;100343.22;4954599;29;20046;-67
2022/07/24 10:31:58;;;;;;;6.05;4.00;;;;;;;37.50;31.05;100343.44;4954690;29;20554;-67
2022/07/24 10:34:23;;;;;;;5.05;3.42;;;;;;;37.46;31.92;100340.25;4954529;29;20106;-67
2022/07/24 10:37:06;;;;;;;4.47;3.10;;;;;;;37.77;31.28;100348.78;4956892;28;20141;-67
2022/07/24 10:40:06;;;;;;;6.20;3.40;;;;;;;37.87;31.14;100343.63;4954453;29;20035;-67
2022/07/24 10:42:32;;;;;;;5.63;3.67;;;;;;;37.92;32.33;100335.50;4954217;29;20110;-67
2022/07/24 10:45:18;;;;;;;5.55;2.97;;;;;;;37.88;33.33;100339.78;4954030;29;20315;-67
2022/07/24 10:47:46;;;;;;;7.72;3.83;;;;;;;38.13;32.43;100329.66;4954254;29;20038;-67
2022/07/24 10:50:14;;;;;;;6.13;3.65;;;;;;;38.38;31.92;100328.91;4952293;29;20031;-67
2022/07/24 10:52:41;;;;;;;5.97;3.22;;;;;;;38.23;31.29;100326.41;4953864;29;20027;-67
2022/07/24 10:55:26;;;;;;;4.90;3.20;;;;;;;37.84;31.60;100316.25;4954095;29;20797;-67
2022/07/24 10:57:59;;;;;;;6.47;3.75;;;;;;;37.64;30.72;100322.91;4956710;28;20035;-67
2022/07/24 11:00:37;;;;;;;5.68;3.05;;;;;;;37.83;31.01;100308.16;4954124;29;20039;-67
2022/07/24 11:03:05;;;;;;;5.25;2.85;;;;;;;37.89;32.33;100308.13;4954018;29;20038;-67
2022/07/24 11:05:36;;;;;;;5.03;3.30;;;;;;;38.03;31.65;100309.81;4953104;29;20026;-67
2022/07/24 11:08:18;;;;;;;4.53;2.75;;;;;;;38.16;30.17;100301.44;4954239;28;20039;-67
2022/07/24 11:10:49;;;;;;;4.55;3.30;;;;;;;38.28;30.83;100301.59;4956278;28;20031;-67
2022/07/24 11:13:32;;;;;;;5.07;3.33;;;;;;;38.41;29.36;100300.66;4954174;29;20049;-66
2022/07/24 11:16:10;;;;;;;6.43;3.35;;;;;;;38.68;29.99;100299.47;4953487;29;20035;-66
2022/07/24 11:18:39;;;;;;;5.43;3.10;;;;;;;38.87;29.55;100290.09;4953715;29;20619;-66